Terminal Aerodrome Forecast
Issued by NWS Pocatello, ID

Home | Current Version | Previous Version | Text Only | Print | Product List | Glossary On
Versions: 1 2 3 4 5 6 7 8 9 10 11 12 13 14 15 16 17 18 19 20 21 22 23
000
FTUS45 KPIH 252148 AAA
TAFIDA
TAF AMD
KIDA 252148Z 2522/2618 21011KT P6SM VCTS SCT060 BKN080CB
      TEMPO 2522/2524 VRB10G25KT -TSRA OVC060CB
     FM260300 VRB06KT P6SM VCSH SCT070 BKN090=

USA.gov is the U.S. government's official web portal to all federal, state and local government web resources and services.